Time;durP1;ratioP1;P1;durP2;ratioP2;P2;SDS_P1;SDS_P2;PMS_P1;PMS_P2;Temp;Humidity;BMP_temperature;BMP_pressure;BME280_temperature;BME280_humidity;BME280_pressure;Samples;Min_cycle;Max_cycle;Signal;HPM_P1;HPM_P2
2021/05/12 00:01:22;;;;;;;2.88;1.90;;;;;;;;;;5134450;27;20039;-70
2021/05/12 00:03:48;;;;;;;4.20;2.15;;;;;;;;;;5135166;27;20115;-70
2021/05/12 00:06:14;;;;;;;2.72;1.48;;;;;;;;;;5134951;27;20051;-70
2021/05/12 00:08:41;;;;;;;2.55;1.63;;;;;;;;;;5135493;27;20062;-71
2021/05/12 00:11:07;;;;;;;2.90;1.30;;;;;;;;;;5134193;27;20054;-70
2021/05/12 00:13:33;;;;;;;2.72;1.77;;;;;;;;;;5134956;27;20186;-70
2021/05/12 00:15:59;;;;;;;1.85;1.35;;;;;;;;;;5134950;27;20039;-70
2021/05/12 00:18:27;;;;;;;1.73;1.30;;;;;;;;;;5135158;27;20108;-70
2021/05/12 00:20:53;;;;;;;2.42;1.52;;;;;;;;;;5135064;27;20096;-70
2021/05/12 00:23:23;;;;;;;2.53;1.55;;;;;;;;;;5134548;27;20051;-70
2021/05/12 00:25:50;;;;;;;3.42;1.67;;;;;;;;;;5134119;27;20112;-70
2021/05/12 00:28:16;;;;;;;1.67;1.38;;;;;;;;;;5129458;27;20058;-70
2021/05/12 00:30:42;;;;;;;2.55;1.52;;;;;;;;;;5134153;27;20043;-70
2021/05/12 00:33:08;;;;;;;2.30;1.58;;;;;;;;;;5133653;27;20048;-70
2021/05/12 00:35:34;;;;;;;1.95;1.40;;;;;;;;;;5132124;27;20047;-70
2021/05/12 00:38:00;;;;;;;1.58;1.20;;;;;;;;;;5148139;27;20507;-70
2021/05/12 00:40:26;;;;;;;1.33;1.00;;;;;;;;;;5130490;27;20054;-71
2021/05/12 00:42:53;;;;;;;1.73;1.30;;;;;;;;;;5133692;27;20376;-70
2021/05/12 00:45:21;;;;;;;2.05;1.38;;;;;;;;;;5134363;27;20058;-70
2021/05/12 00:47:48;;;;;;;1.65;1.25;;;;;;;;;;5148982;27;20506;-69
2021/05/12 00:50:16;;;;;;;2.58;1.17;;;;;;;;;;5144802;27;20047;-71
2021/05/12 00:52:42;;;;;;;2.83;1.30;;;;;;;;;;5133412;27;20533;-71
2021/05/12 00:55:09;;;;;;;1.60;1.10;;;;;;;;;;5134548;27;20054;-71
2021/05/12 00:57:35;;;;;;;1.73;1.25;;;;;;;;;;5134413;27;20399;-70
2021/05/12 01:00:05;;;;;;;1.58;1.10;;;;;;;;;;5133975;27;20085;-69
2021/05/12 01:02:33;;;;;;;1.63;1.00;;;;;;;;;;5133638;27;20051;-69
2021/05/12 01:04:59;;;;;;;1.55;0.90;;;;;;;;;;5133592;27;20535;-69
2021/05/12 01:07:25;;;;;;;1.42;1.00;;;;;;;;;;5134023;27;20058;-69
2021/05/12 01:09:51;;;;;;;2.60;1.13;;;;;;;;;;5133513;27;20072;-69
2021/05/12 01:12:17;;;;;;;1.42;0.90;;;;;;;;;;5133296;27;20047;-69
2021/05/12 01:14:43;;;;;;;1.40;1.00;;;;;;;;;;5134129;27;20047;-69
2021/05/12 01:17:11;;;;;;;2.42;1.08;;;;;;;;;;5134122;27;20051;-69
2021/05/12 01:19:38;;;;;;;1.25;1.00;;;;;;;;;;5133717;27;20043;-69
2021/05/12 01:22:05;;;;;;;3.33;1.35;;;;;;;;;;5132661;27;20058;-69
2021/05/12 01:24:31;;;;;;;1.77;1.33;;;;;;;;;;5133560;27;20045;-70
2021/05/12 01:26:57;;;;;;;1.75;1.30;;;;;;;;;;5129787;27;20468;-69
2021/05/12 01:29:23;;;;;;;2.55;1.48;;;;;;;;;;5142090;27;20093;-69
2021/05/12 01:31:49;;;;;;;1.98;1.50;;;;;;;;;;5132708;28;20051;-69
2021/05/12 01:34:17;;;;;;;1.90;1.40;;;;;;;;;;5134092;28;20055;-69
2021/05/12 01:36:44;;;;;;;2.63;2.13;;;;;;;;;;5133210;28;20449;-69
2021/05/12 01:39:11;;;;;;;4.18;1.67;;;;;;;;;;5132346;28;20586;-69
2021/05/12 01:41:37;;;;;;;3.03;1.63;;;;;;;;;;5130091;28;20479;-69
2021/05/12 01:44:08;;;;;;;2.30;1.65;;;;;;;;;;5133233;28;20058;-69
2021/05/12 01:46:34;;;;;;;1.67;1.33;;;;;;;;;;5112447;28;20100;-69
2021/05/12 01:49:01;;;;;;;2.30;1.45;;;;;;;;;;5113065;28;20130;-69
2021/05/12 01:51:27;;;;;;;3.22;1.90;;;;;;;;;;5122258;27;20472;-69
2021/05/12 01:53:53;;;;;;;2.00;1.50;;;;;;;;;;5136154;27;20043;-69
2021/05/12 01:56:20;;;;;;;1.95;1.35;;;;;;;;;;5126904;27;20135;-70
2021/05/12 01:58:46;;;;;;;2.70;1.90;;;;;;;;;;5127234;27;20039;-69
2021/05/12 02:01:12;;;;;;;2.17;1.58;;;;;;;;;;5137072;27;20045;-69
2021/05/12 02:03:39;;;;;;;3.17;1.98;;;;;;;;;;5136922;27;20092;-69
2021/05/12 02:06:06;;;;;;;2.15;1.60;;;;;;;;;;5137138;27;20724;-69
2021/05/12 02:08:32;;;;;;;2.10;1.33;;;;;;;;;;5137399;27;20463;-70
2021/05/12 02:11:00;;;;;;;2.00;1.30;;;;;;;;;;5137192;27;20058;-69
2021/05/12 02:13:29;;;;;;;1.60;1.30;;;;;;;;;;5137646;27;20494;-69
2021/05/12 02:15:56;;;;;;;2.15;1.25;;;;;;;;;;5137143;27;20057;-69
2021/05/12 02:18:22;;;;;;;2.17;1.33;;;;;;;;;;5137343;27;20096;-69
2021/05/12 02:20:48;;;;;;;3.65;1.73;;;;;;;;;;5136918;27;20050;-69
2021/05/12 02:23:16;;;;;;;1.55;1.10;;;;;;;;;;5136523;27;20483;-69
2021/05/12 02:25:42;;;;;;;1.98;1.20;;;;;;;;;;5137136;27;20479;-69
2021/05/12 02:28:10;;;;;;;1.67;1.10;;;;;;;;;;5137552;27;20137;-70
2021/05/12 02:30:37;;;;;;;2.28;1.30;;;;;;;;;;5137379;27;20054;-70
2021/05/12 02:33:04;;;;;;;1.90;1.23;;;;;;;;;;5136717;27;20294;-70
2021/05/12 02:35:30;;;;;;;2.00;1.10;;;;;;;;;;5136810;27;20047;-69
2021/05/12 02:37:56;;;;;;;2.15;1.27;;;;;;;;;;5136923;27;20069;-70
2021/05/12 02:40:23;;;;;;;1.63;1.20;;;;;;;;;;5134841;27;20050;-70
2021/05/12 02:42:50;;;;;;;3.65;1.40;;;;;;;;;;5135167;27;20046;-70
2021/05/12 02:45:16;;;;;;;2.13;1.40;;;;;;;;;;5137016;27;20047;-70
2021/05/12 02:47:56;;;;;;;1.67;1.10;;;;;;;;;;5136800;27;20047;-70
2021/05/12 02:50:23;;;;;;;1.77;1.38;;;;;;;;;;5137211;27;20495;-70
2021/05/12 02:52:49;;;;;;;1.42;1.00;;;;;;;;;;5136371;27;20062;-70
2021/05/12 02:55:15;;;;;;;1.67;0.98;;;;;;;;;;5136799;27;20051;-70
2021/05/12 02:57:41;;;;;;;1.70;1.13;;;;;;;;;;5124738;27;20067;-70
2021/05/12 03:00:08;;;;;;;1.23;0.90;;;;;;;;;;5137332;27;20084;-70
2021/05/12 03:02:34;;;;;;;1.73;1.00;;;;;;;;;;5135662;27;20066;-70
2021/05/12 03:05:01;;;;;;;1.27;0.77;;;;;;;;;;5137272;27;20047;-70
2021/05/12 03:07:27;;;;;;;1.38;0.80;;;;;;;;;;5136733;27;20043;-70
2021/05/12 03:09:53;;;;;;;1.33;0.77;;;;;;;;;;5136703;27;20487;-70
2021/05/12 03:12:19;;;;;;;3.05;1.10;;;;;;;;;;5136039;27;20047;-69
2021/05/12 03:14:45;;;;;;;0.85;0.80;;;;;;;;;;5137020;27;20100;-69
2021/05/12 03:17:11;;;;;;;1.10;0.75;;;;;;;;;;5137208;27;20043;-69
2021/05/12 03:19:37;;;;;;;0.47;0.47;;;;;;;;;;5136415;27;20532;-70
2021/05/12 03:22:04;;;;;;;2.22;0.95;;;;;;;;;;5135590;27;20043;-69
2021/05/12 03:24:30;;;;;;;1.17;0.73;;;;;;;;;;5136794;27;20442;-69
2021/05/12 03:26:56;;;;;;;1.02;0.75;;;;;;;;;;5137161;27;20051;-69
2021/05/12 03:29:22;;;;;;;1.45;1.00;;;;;;;;;;5137110;27;20043;-69
2021/05/12 03:31:48;;;;;;;1.92;0.85;;;;;;;;;;5136406;27;20074;-69
2021/05/12 03:34:14;;;;;;;3.08;1.30;;;;;;;;;;5138495;27;20062;-69
2021/05/12 03:36:40;;;;;;;0.80;0.80;;;;;;;;;;5137716;27;20075;-68
2021/05/12 03:39:07;;;;;;;1.50;1.08;;;;;;;;;;5137480;27;20054;-68
2021/05/12 03:41:33;;;;;;;1.73;1.20;;;;;;;;;;5133462;27;20043;-68
2021/05/12 03:43:59;;;;;;;1.88;1.15;;;;;;;;;;5136946;27;20491;-68
2021/05/12 03:46:25;;;;;;;1.83;1.27;;;;;;;;;;5131776;27;20043;-69
2021/05/12 03:48:51;;;;;;;2.10;1.05;;;;;;;;;;5138008;27;20054;-68
2021/05/12 03:51:17;;;;;;;1.63;1.05;;;;;;;;;;5136325;27;20050;-68
2021/05/12 03:53:42;;;;;;;4.03;1.30;;;;;;;;;;5137176;27;20472;-68
2021/05/12 03:56:09;;;;;;;2.53;1.50;;;;;;;;;;5137340;27;20043;-68
2021/05/12 03:58:35;;;;;;;1.48;1.00;;;;;;;;;;5137031;27;20051;-68
2021/05/12 04:01:01;;;;;;;2.40;1.20;;;;;;;;;;5135443;27;20050;-68
2021/05/12 04:03:28;;;;;;;2.67;1.40;;;;;;;;;;5136556;27;20055;-68
2021/05/12 04:05:54;;;;;;;3.13;1.35;;;;;;;;;;5135766;27;20491;-68
2021/05/12 04:08:23;;;;;;;2.08;1.20;;;;;;;;;;5144193;27;20051;-68
2021/05/12 04:10:50;;;;;;;2.10;1.20;;;;;;;;;;5135756;27;20074;-68
2021/05/12 04:13:17;;;;;;;1.95;0.93;;;;;;;;;;5134867;27;20050;-68
2021/05/12 04:15:43;;;;;;;2.63;1.17;;;;;;;;;;5134333;27;20058;-68
2021/05/12 04:18:09;;;;;;;2.53;1.05;;;;;;;;;;5134709;27;20096;-68
2021/05/12 04:20:35;;;;;;;1.75;1.10;;;;;;;;;;5135451;27;20062;-68
2021/05/12 04:23:01;;;;;;;5.50;1.63;;;;;;;;;;5134728;27;20096;-69
2021/05/12 04:25:27;;;;;;;2.75;1.48;;;;;;;;;;5140199;27;20084;-68
2021/05/12 04:27:53;;;;;;;1.60;1.13;;;;;;;;;;5135753;27;20051;-68
2021/05/12 04:30:22;;;;;;;2.03;1.35;;;;;;;;;;5134330;27;20084;-68
2021/05/12 04:32:49;;;;;;;7.22;2.05;;;;;;;;;;5136134;27;20546;-68
2021/05/12 04:35:18;;;;;;;2.20;1.10;;;;;;;;;;5134399;27;20046;-68
2021/05/12 04:37:44;;;;;;;2.42;1.50;;;;;;;;;;5140084;27;20059;-69
2021/05/12 04:40:11;;;;;;;4.47;1.70;;;;;;;;;;5132974;27;20134;-69
2021/05/12 04:42:37;;;;;;;3.33;2.00;;;;;;;;;;5131657;27;20057;-69
2021/05/12 04:45:04;;;;;;;3.63;2.15;;;;;;;;;;5136543;27;20055;-69
2021/05/12 04:47:30;;;;;;;2.88;1.73;;;;;;;;;;5132944;27;20039;-69
2021/05/12 04:49:56;;;;;;;2.65;1.52;;;;;;;;;;5138804;27;20081;-69
2021/05/12 04:52:22;;;;;;;4.47;1.83;;;;;;;;;;5133573;27;20130;-69
2021/05/12 04:54:48;;;;;;;3.40;2.30;;;;;;;;;;5135204;27;20761;-69
2021/05/12 04:57:14;;;;;;;2.63;1.63;;;;;;;;;;5134688;27;20475;-69
2021/05/12 04:59:40;;;;;;;3.60;2.17;;;;;;;;;;5135509;27;20103;-69
2021/05/12 05:02:09;;;;;;;6.60;1.77;;;;;;;;;;5134279;27;20396;-69
2021/05/12 05:04:36;;;;;;;5.32;2.45;;;;;;;;;;5135418;27;20062;-69
2021/05/12 05:07:02;;;;;;;3.40;2.13;;;;;;;;;;5136193;27;20047;-70
2021/05/12 05:09:28;;;;;;;6.15;1.80;;;;;;;;;;5134962;27;20054;-70
2021/05/12 05:11:54;;;;;;;5.65;2.35;;;;;;;;;;5134265;27;20460;-70
2021/05/12 05:14:20;;;;;;;5.10;2.30;;;;;;;;;;5134572;27;20050;-70
2021/05/12 05:16:47;;;;;;;3.58;2.05;;;;;;;;;;5134672;27;20058;-67
2021/05/12 05:19:13;;;;;;;7.70;2.45;;;;;;;;;;5134636;27;20138;-67
2021/05/12 05:21:40;;;;;;;4.47;2.00;;;;;;;;;;5134243;27;20506;-68
2021/05/12 05:24:07;;;;;;;6.20;2.65;;;;;;;;;;5134251;27;20054;-68
2021/05/12 05:26:33;;;;;;;3.42;2.10;;;;;;;;;;5134167;27;20047;-68
2021/05/12 05:28:59;;;;;;;6.32;2.45;;;;;;;;;;5134390;27;20047;-68
2021/05/12 05:31:25;;;;;;;4.22;2.70;;;;;;;;;;5133197;28;20047;-68
2021/05/12 05:33:51;;;;;;;4.20;2.20;;;;;;;;;;5134581;28;20051;-68
2021/05/12 05:36:17;;;;;;;3.35;2.03;;;;;;;;;;5133389;28;20071;-68
2021/05/12 05:38:44;;;;;;;5.03;2.05;;;;;;;;;;5134501;28;20138;-68
2021/05/12 05:41:10;;;;;;;3.20;2.03;;;;;;;;;;5133631;28;20051;-68
2021/05/12 05:43:35;;;;;;;2.90;1.70;;;;;;;;;;5129753;28;20551;-68
2021/05/12 05:46:02;;;;;;;3.50;1.80;;;;;;;;;;5113798;28;20056;-68
2021/05/12 05:48:27;;;;;;;5.72;2.25;;;;;;;;;;5132948;28;20077;-68
2021/05/12 05:50:53;;;;;;;3.53;1.75;;;;;;;;;;5133932;28;20058;-68
2021/05/12 05:53:20;;;;;;;3.35;1.50;;;;;;;;;;5134720;28;20055;-68
2021/05/12 05:55:47;;;;;;;2.45;1.30;;;;;;;;;;5134466;28;20051;-68
2021/05/12 05:58:13;;;;;;;3.30;1.70;;;;;;;;;;5134426;28;20043;-68
2021/05/12 06:00:40;;;;;;;3.60;1.65;;;;;;;;;;5134219;28;20062;-68
2021/05/12 06:03:06;;;;;;;4.38;1.80;;;;;;;;;;5133658;28;20043;-68
2021/05/12 06:05:32;;;;;;;3.08;1.67;;;;;;;;;;5134765;28;20174;-68
2021/05/12 06:07:58;;;;;;;3.17;1.67;;;;;;;;;;5134485;28;20072;-68
2021/05/12 06:10:24;;;;;;;2.28;1.60;;;;;;;;;;5134564;28;20490;-68
2021/05/12 06:12:51;;;;;;;4.75;2.78;;;;;;;;;;5133645;28;20476;-68
2021/05/12 06:15:20;;;;;;;3.88;1.85;;;;;;;;;;5134584;28;20051;-68
2021/05/12 06:17:46;;;;;;;3.30;1.77;;;;;;;;;;5130442;28;20039;-68
2021/05/12 06:20:13;;;;;;;4.32;1.70;;;;;;;;;;5132190;28;20674;-70
2021/05/12 06:22:39;;;;;;;2.53;1.55;;;;;;;;;;5129394;28;20050;-69
2021/05/12 06:25:06;;;;;;;2.67;1.52;;;;;;;;;;5132648;28;20059;-69
2021/05/12 06:27:32;;;;;;;2.75;1.83;;;;;;;;;;5132475;28;20054;-69
2021/05/12 06:29:59;;;;;;;4.30;2.10;;;;;;;;;;5132784;28;20047;-70
2021/05/12 06:32:25;;;;;;;3.60;1.73;;;;;;;;;;5131862;28;20626;-69
2021/05/12 06:34:51;;;;;;;3.97;1.80;;;;;;;;;;5132729;28;20107;-67
2021/05/12 06:37:18;;;;;;;2.88;1.65;;;;;;;;;;5134492;27;20503;-68
2021/05/12 06:39:44;;;;;;;4.03;1.90;;;;;;;;;;5136411;27;20130;-68
2021/05/12 06:42:10;;;;;;;6.03;2.28;;;;;;;;;;5136072;27;20479;-68
2021/05/12 06:44:36;;;;;;;3.00;2.00;;;;;;;;;;5135472;27;20054;-68
2021/05/12 06:47:03;;;;;;;6.22;2.60;;;;;;;;;;5129313;27;20100;-68
2021/05/12 06:49:28;;;;;;;5.40;2.40;;;;;;;;;;5135935;27;20070;-68
2021/05/12 06:51:55;;;;;;;3.97;2.42;;;;;;;;;;5135756;27;20051;-68
2021/05/12 06:54:21;;;;;;;4.00;2.40;;;;;;;;;;5136343;27;20043;-68
2021/05/12 06:56:47;;;;;;;4.75;2.60;;;;;;;;;;5135585;27;20058;-68
2021/05/12 06:59:13;;;;;;;4.90;2.67;;;;;;;;;;5135653;27;20740;-68
2021/05/12 07:01:39;;;;;;;4.05;2.70;;;;;;;;;;5135234;27;20046;-68
2021/05/12 07:04:06;;;;;;;4.20;2.22;;;;;;;;;;5136651;27;20502;-68
2021/05/12 07:06:32;;;;;;;5.70;2.75;;;;;;;;;;5136128;27;20055;-68
2021/05/12 07:08:58;;;;;;;4.13;2.30;;;;;;;;;;5135069;27;20049;-68
2021/05/12 07:11:24;;;;;;;4.55;2.35;;;;;;;;;;5136760;27;20468;-68
2021/05/12 07:13:51;;;;;;;6.38;2.80;;;;;;;;;;5136802;27;20051;-68
2021/05/12 07:16:17;;;;;;;5.18;2.20;;;;;;;;;;5136962;27;20051;-68
2021/05/12 07:18:43;;;;;;;4.07;2.55;;;;;;;;;;5137308;27;20077;-68
2021/05/12 07:21:10;;;;;;;4.53;2.35;;;;;;;;;;5137194;27;20551;-68
2021/05/12 07:23:38;;;;;;;4.88;2.58;;;;;;;;;;5137707;27;20047;-68
2021/05/12 07:26:04;;;;;;;4.82;2.35;;;;;;;;;;5137019;27;20051;-68
2021/05/12 07:28:30;;;;;;;4.63;2.80;;;;;;;;;;5136615;27;20066;-68
2021/05/12 07:30:56;;;;;;;6.60;2.50;;;;;;;;;;5136029;27;20050;-67
2021/05/12 07:33:22;;;;;;;4.60;2.85;;;;;;;;;;5136110;27;20123;-68
2021/05/12 07:35:48;;;;;;;3.83;2.47;;;;;;;;;;5136220;27;20051;-68
2021/05/12 07:38:15;;;;;;;7.43;3.28;;;;;;;;;;5136508;27;20373;-68
2021/05/12 07:40:41;;;;;;;5.38;3.40;;;;;;;;;;5135060;27;20039;-67
2021/05/12 07:43:09;;;;;;;5.15;3.20;;;;;;;;;;5134800;27;20104;-68
2021/05/12 07:45:37;;;;;;;6.18;2.80;;;;;;;;;;5127761;27;20063;-68
2021/05/12 07:48:03;;;;;;;5.47;3.42;;;;;;;;;;5129386;27;20082;-68
2021/05/12 07:50:30;;;;;;;5.07;2.97;;;;;;;;;;5134470;27;20055;-68
2021/05/12 07:52:57;;;;;;;5.78;3.67;;;;;;;;;;5135165;27;20047;-68
2021/05/12 07:55:24;;;;;;;6.90;3.20;;;;;;;;;;5134471;27;20047;-68
2021/05/12 07:57:50;;;;;;;6.05;3.45;;;;;;;;;;5134758;27;20154;-68
2021/05/12 08:00:18;;;;;;;6.93;3.35;;;;;;;;;;5134806;27;20078;-68
2021/05/12 08:02:44;;;;;;;6.45;3.45;;;;;;;;;;5134409;27;20135;-68
2021/05/12 08:05:11;;;;;;;6.07;3.78;;;;;;;;;;5134944;27;20043;-68
2021/05/12 08:07:37;;;;;;;5.57;3.78;;;;;;;;;;5132748;27;20149;-68
2021/05/12 08:10:04;;;;;;;5.78;3.60;;;;;;;;;;5134536;27;20437;-67
2021/05/12 08:12:31;;;;;;;5.03;3.42;;;;;;;;;;5133813;27;20040;-68
2021/05/12 08:14:57;;;;;;;5.15;3.03;;;;;;;;;;5134635;27;20468;-68
2021/05/12 08:17:23;;;;;;;5.72;3.50;;;;;;;;;;5135428;27;20054;-68
2021/05/12 08:19:49;;;;;;;4.63;2.83;;;;;;;;;;5135678;27;20058;-67
2021/05/12 08:22:15;;;;;;;4.53;3.05;;;;;;;;;;5135312;27;20090;-68
2021/05/12 08:24:41;;;;;;;5.55;3.65;;;;;;;;;;5135458;27;20059;-68
2021/05/12 08:27:07;;;;;;;7.75;3.65;;;;;;;;;;5136367;27;20107;-69
2021/05/12 08:29:36;;;;;;;5.38;3.55;;;;;;;;;;5135535;27;20114;-68
2021/05/12 08:32:04;;;;;;;4.45;3.30;;;;;;;;;;5135199;27;20400;-69
2021/05/12 08:34:31;;;;;;;5.90;3.20;;;;;;;;;;5134950;27;20476;-67
2021/05/12 08:36:57;;;;;;;6.88;3.72;;;;;;;;;;5135211;27;20047;-69
2021/05/12 08:39:24;;;;;;;5.30;3.13;;;;;;;;;;5134921;27;20061;-68
2021/05/12 08:41:51;;;;;;;5.38;3.22;;;;;;;;;;5135286;27;20047;-68
2021/05/12 08:44:17;;;;;;;10.02;3.35;;;;;;;;;;5130076;27;20058;-68
2021/05/12 08:46:45;;;;;;;7.35;4.10;;;;;;;;;;5129785;27;20497;-68
2021/05/12 08:49:11;;;;;;;5.32;3.63;;;;;;;;;;5132819;27;20046;-68
2021/05/12 08:51:37;;;;;;;6.93;3.65;;;;;;;;;;5134129;27;20035;-68
2021/05/12 08:54:04;;;;;;;6.88;3.70;;;;;;;;;;5135227;27;20047;-68
2021/05/12 08:56:30;;;;;;;5.45;3.70;;;;;;;;;;5135287;27;20051;-68
2021/05/12 08:58:58;;;;;;;6.38;3.53;;;;;;;;;;5134510;27;20399;-68
2021/05/12 09:01:24;;;;;;;4.57;3.05;;;;;;;;;;5133844;27;20039;-68
2021/05/12 09:03:51;;;;;;;6.30;3.70;;;;;;;;;;5141610;27;20130;-68
2021/05/12 09:06:18;;;;;;;5.68;3.30;;;;;;;;;;5133854;27;20047;-68
2021/05/12 09:08:47;;;;;;;6.43;3.30;;;;;;;;;;5133319;27;20050;-68
2021/05/12 09:11:13;;;;;;;4.32;2.85;;;;;;;;;;5132945;27;20046;-68
2021/05/12 09:13:39;;;;;;;4.68;3.20;;;;;;;;;;5133379;27;20047;-68
2021/05/12 09:16:22;;;;;;;5.78;3.83;;;;;;;;;;5133587;27;20047;-68
2021/05/12 09:18:49;;;;;;;4.68;3.30;;;;;;;;;;5133234;27;20696;-68
2021/05/12 09:21:16;;;;;;;5.10;3.55;;;;;;;;;;5132973;27;20446;-68
2021/05/12 09:23:43;;;;;;;6.15;4.13;;;;;;;;;;5133162;27;20363;-68
2021/05/12 09:26:14;;;;;;;5.38;3.40;;;;;;;;;;5133695;27;20062;-68
2021/05/12 09:28:40;;;;;;;5.78;3.80;;;;;;;;;;5133016;27;20082;-68
2021/05/12 09:31:10;;;;;;;5.35;3.95;;;;;;;;;;5132969;27;20043;-68
2021/05/12 09:33:39;;;;;;;6.28;3.90;;;;;;;;;;5133033;28;20057;-68
2021/05/12 09:36:07;;;;;;;7.38;4.18;;;;;;;;;;5133351;28;20047;-68
2021/05/12 09:38:35;;;;;;;5.25;3.67;;;;;;;;;;5132987;28;20043;-68
2021/05/12 09:41:12;;;;;;;4.45;3.38;;;;;;;;;;5132493;28;20043;-68
2021/05/12 09:43:45;;;;;;;7.13;4.00;;;;;;;;;;5132413;28;20134;-68
2021/05/12 09:46:20;;;;;;;4.78;3.75;;;;;;;;;;5133176;28;20046;-68
2021/05/12 09:48:47;;;;;;;5.90;4.47;;;;;;;;;;5125803;28;20059;-69
2021/05/12 09:51:18;;;;;;;5.97;4.25;;;;;;;;;;5131844;28;20043;-68
2021/05/12 09:54:00;;;;;;;5.47;3.55;;;;;;;;;;5126581;28;20051;-68
2021/05/12 09:56:40;;;;;;;5.90;4.20;;;;;;;;;;5134675;28;20047;-68
2021/05/12 09:59:08;;;;;;;6.35;4.55;;;;;;;;;;5133622;28;20080;-69
2021/05/12 10:01:44;;;;;;;6.20;4.63;;;;;;;;;;5132868;28;20039;-69
2021/05/12 10:04:33;;;;;;;5.40;4.35;;;;;;;;;;5131403;28;20035;-68
2021/05/12 10:07:01;;;;;;;6.25;4.95;;;;;;;;;;5132380;28;20043;-68
2021/05/12 10:09:29;;;;;;;5.00;3.97;;;;;;;;;;5132534;28;20039;-68
2021/05/12 10:12:09;;;;;;;7.00;4.70;;;;;;;;;;5134894;27;20047;-68
2021/05/12 10:14:37;;;;;;;6.10;4.65;;;;;;;;;;5136030;27;20047;-68
2021/05/12 10:17:04;;;;;;;5.68;4.68;;;;;;;;;;5137747;27;20047;-68
2021/05/12 10:19:31;;;;;;;7.85;4.35;;;;;;;;;;5136108;27;20043;-68
2021/05/12 10:22:00;;;;;;;6.03;4.50;;;;;;;;;;5136658;27;20100;-68
2021/05/12 10:24:26;;;;;;;6.00;3.92;;;;;;;;;;5136651;27;20157;-68
2021/05/12 10:26:53;;;;;;;5.95;3.85;;;;;;;;;;5137042;27;20058;-68
2021/05/12 10:29:21;;;;;;;5.65;3.58;;;;;;;;;;5136619;27;20047;-68
2021/05/12 10:31:47;;;;;;;5.30;3.33;;;;;;;;;;5136011;27;20035;-69
2021/05/12 10:34:17;;;;;;;6.53;4.57;;;;;;;;;;5137205;27;20115;-69
2021/05/12 10:36:43;;;;;;;6.03;4.72;;;;;;;;;;5136999;27;20047;-69
2021/05/12 10:39:09;;;;;;;8.65;5.65;;;;;;;;;;5137047;27;20051;-69
2021/05/12 10:41:37;;;;;;;6.47;4.38;;;;;;;;;;5133861;27;20051;-69
2021/05/12 10:44:10;;;;;;;5.88;3.85;;;;;;;;;;5135547;27;20066;-69
2021/05/12 10:46:49;;;;;;;6.80;4.28;;;;;;;;;;5134525;27;20096;-69
2021/05/12 10:49:22;;;;;;;7.18;4.43;;;;;;;;;;5132609;27;20053;-69
2021/05/12 10:51:49;;;;;;;7.07;4.38;;;;;;;;;;5133614;27;20035;-69
2021/05/12 10:54:15;;;;;;;6.13;4.53;;;;;;;;;;5135378;27;20457;-69
2021/05/12 10:56:43;;;;;;;5.97;4.45;;;;;;;;;;5134524;27;20035;-68
2021/05/12 10:59:11;;;;;;;6.50;4.40;;;;;;;;;;5135779;27;20142;-69
2021/05/12 11:01:52;;;;;;;6.35;3.97;;;;;;;;;;5134743;27;20133;-69
2021/05/12 11:04:19;;;;;;;5.72;4.43;;;;;;;;;;5135812;27;20465;-69
2021/05/12 11:07:09;;;;;;;6.85;4.15;;;;;;;;;;5134564;27;20051;-68
2021/05/12 11:09:40;;;;;;;6.65;5.00;;;;;;;;;;5134586;27;20143;-69
2021/05/12 11:12:09;;;;;;;6.47;4.30;;;;;;;;;;5135300;27;20055;-69
2021/05/12 11:14:37;;;;;;;6.30;4.07;;;;;;;;;;5137991;27;20141;-69
2021/05/12 11:17:05;;;;;;;8.15;5.30;;;;;;;;;;5137089;27;20047;-68
2021/05/12 11:19:35;;;;;;;7.28;4.80;;;;;;;;;;5129251;27;20043;-68
2021/05/12 11:22:33;;;;;;;8.77;5.03;;;;;;;;;;5133394;27;20047;-68
2021/05/12 11:25:03;;;;;;;6.93;5.22;;;;;;;;;;5135920;27;20602;-68
2021/05/12 11:27:48;;;;;;;6.38;4.07;;;;;;;;;;5136165;27;20438;-70
2021/05/12 11:33:02;;;;;;;6.38;4.53;;;;;;;;;;5134576;27;20407;-69
2021/05/12 11:35:28;;;;;;;6.55;5.07;;;;;;;;;;5135800;27;20051;-69
2021/05/12 11:37:55;;;;;;;7.57;5.30;;;;;;;;;;5140950;27;20647;-69
2021/05/12 11:40:21;;;;;;;7.45;5.97;;;;;;;;;;5134252;27;20047;-70
2021/05/12 11:42:48;;;;;;;7.35;5.15;;;;;;;;;;5135339;27;20062;-70
2021/05/12 11:45:17;;;;;;;7.82;5.07;;;;;;;;;;5135608;27;20134;-69
2021/05/12 11:47:57;;;;;;;8.27;6.07;;;;;;;;;;5127250;27;20047;-74
2021/05/12 11:50:25;;;;;;;7.80;5.78;;;;;;;;;;5132374;27;20051;-69
2021/05/12 11:52:52;;;;;;;6.68;5.25;;;;;;;;;;5134568;27;20050;-70
2021/05/12 11:55:19;;;;;;;7.68;5.43;;;;;;;;;;5134706;27;20129;-70
2021/05/12 11:57:46;;;;;;;7.88;6.00;;;;;;;;;;5134828;27;20070;-70
2021/05/12 12:00:16;;;;;;;7.88;5.75;;;;;;;;;;5130745;27;20054;-72
2021/05/12 12:02:55;;;;;;;8.23;6.13;;;;;;;;;;5134707;27;20044;-70
2021/05/12 12:05:21;;;;;;;11.20;6.45;;;;;;;;;;5134775;27;20130;-70
2021/05/12 12:07:47;;;;;;;8.55;6.32;;;;;;;;;;5134528;27;20047;-70
2021/05/12 12:10:15;;;;;;;9.57;6.05;;;;;;;;;;5134224;27;20502;-69
2021/05/12 12:12:55;;;;;;;8.18;6.35;;;;;;;;;;5130892;27;20051;-69
2021/05/12 12:15:21;;;;;;;9.65;6.32;;;;;;;;;;5135049;27;20104;-69
2021/05/12 12:17:49;;;;;;;7.97;6.13;;;;;;;;;;5134695;27;20438;-72
2021/05/12 12:20:16;;;;;;;8.63;7.38;;;;;;;;;;5133956;27;20043;-70
2021/05/12 12:22:47;;;;;;;9.63;7.38;;;;;;;;;;5133797;27;20177;-70
2021/05/12 12:25:14;;;;;;;7.15;5.90;;;;;;;;;;5133715;27;20499;-70
2021/05/12 12:27:40;;;;;;;9.32;7.35;;;;;;;;;;5134157;27;20047;-70
2021/05/12 12:30:07;;;;;;;10.52;7.38;;;;;;;;;;5134134;27;20054;-68
2021/05/12 12:32:33;;;;;;;7.97;6.50;;;;;;;;;;5132115;27;20134;-68
2021/05/12 12:34:59;;;;;;;9.98;7.45;;;;;;;;;;5132968;27;20059;-70
2021/05/12 12:37:31;;;;;;;10.82;7.75;;;;;;;;;;5134121;27;20568;-69
2021/05/12 12:40:02;;;;;;;11.02;6.95;;;;;;;;;;5134113;27;20054;-70
2021/05/12 12:42:30;;;;;;;13.43;7.95;;;;;;;;;;5132707;27;20526;-70
2021/05/12 12:44:57;;;;;;;16.00;8.30;;;;;;;;;;5133643;27;20130;-68
2021/05/12 12:47:24;;;;;;;9.70;7.05;;;;;;;;;;5132624;27;20050;-70
2021/05/12 12:49:55;;;;;;;8.65;6.63;;;;;;;;;;5130118;27;20079;-71
2021/05/12 12:52:23;;;;;;;9.27;7.00;;;;;;;;;;5128289;27;20051;-70
2021/05/12 12:55:03;;;;;;;8.77;6.70;;;;;;;;;;5133637;27;20063;-70
2021/05/12 12:57:38;;;;;;;11.98;7.18;;;;;;;;;;5131563;27;20057;-70
2021/05/12 13:00:13;;;;;;;9.65;7.47;;;;;;;;;;5128277;27;20539;-69
2021/05/12 13:02:40;;;;;;;12.32;7.88;;;;;;;;;;5132860;27;20074;-71
2021/05/12 13:05:17;;;;;;;8.75;7.70;;;;;;;;;;5134785;27;20055;-70
2021/05/12 13:07:43;;;;;;;8.98;7.18;;;;;;;;;;5126565;27;20043;-70
2021/05/12 13:10:27;;;;;;;10.43;8.30;;;;;;;;;;5130834;27;20046;-70
2021/05/12 13:12:54;;;;;;;8.18;6.72;;;;;;;;;;5129450;27;20043;-70
2021/05/12 13:15:21;;;;;;;10.85;7.55;;;;;;;;;;5130291;27;20055;-69
2021/05/12 13:17:52;;;;;;;7.60;6.50;;;;;;;;;;5127638;27;20061;-70
2021/05/12 13:20:18;;;;;;;10.50;7.10;;;;;;;;;;5126293;27;20047;-68
2021/05/12 13:22:44;;;;;;;8.85;7.15;;;;;;;;;;5130076;27;20043;-69
2021/05/12 13:25:11;;;;;;;8.93;7.28;;;;;;;;;;5130340;27;20096;-69
2021/05/12 13:27:38;;;;;;;9.10;7.32;;;;;;;;;;5130914;27;20501;-69
2021/05/12 13:30:05;;;;;;;9.98;7.65;;;;;;;;;;5130726;27;20051;-68
2021/05/12 13:32:31;;;;;;;10.60;8.05;;;;;;;;;;5130006;27;20067;-69
2021/05/12 13:34:58;;;;;;;9.85;7.28;;;;;;;;;;5130230;28;20055;-69
2021/05/12 13:37:24;;;;;;;13.02;7.45;;;;;;;;;;5129738;28;20063;-70
2021/05/12 13:39:54;;;;;;;9.35;6.78;;;;;;;;;;5126452;28;20503;-70
2021/05/12 13:42:20;;;;;;;11.68;8.15;;;;;;;;;;5129558;28;20044;-69
2021/05/12 13:44:47;;;;;;;10.00;6.60;;;;;;;;;;5131443;28;20046;-70
2021/05/12 13:47:13;;;;;;;10.98;6.80;;;;;;;;;;5133248;27;20051;-69
2021/05/12 13:49:39;;;;;;;8.57;6.82;;;;;;;;;;5134218;27;20082;-70
2021/05/12 13:52:07;;;;;;;9.88;7.30;;;;;;;;;;5130956;27;20125;-70
2021/05/12 13:54:38;;;;;;;9.00;5.97;;;;;;;;;;5130410;27;20043;-70
2021/05/12 13:57:12;;;;;;;9.93;6.78;;;;;;;;;;5134368;27;20051;-71
2021/05/12 13:59:53;;;;;;;8.60;6.32;;;;;;;;;;5134157;27;20055;-69
2021/05/12 14:02:32;;;;;;;10.30;7.60;;;;;;;;;;5133747;27;20043;-69
2021/05/12 14:05:01;;;;;;;9.68;6.85;;;;;;;;;;5131969;27;20050;-70
2021/05/12 14:07:27;;;;;;;12.05;7.47;;;;;;;;;;5132624;27;20063;-69
2021/05/12 14:09:55;;;;;;;10.25;7.53;;;;;;;;;;5133672;27;20050;-70
2021/05/12 14:12:22;;;;;;;9.15;7.15;;;;;;;;;;5128893;27;20407;-69
2021/05/12 14:14:58;;;;;;;9.82;7.95;;;;;;;;;;5129336;27;20043;-69
2021/05/12 14:17:27;;;;;;;14.27;7.97;;;;;;;;;;5135943;27;20051;-70
2021/05/12 14:19:53;;;;;;;10.68;8.32;;;;;;;;;;5134571;27;20043;-70
2021/05/12 14:22:19;;;;;;;12.32;8.43;;;;;;;;;;5132917;27;20058;-71
2021/05/12 14:24:45;;;;;;;12.73;8.15;;;;;;;;;;5130676;27;20126;-70
2021/05/12 14:27:11;;;;;;;11.90;8.05;;;;;;;;;;5134471;27;20168;-70
2021/05/12 14:29:39;;;;;;;11.15;6.63;;;;;;;;;;5129076;27;20125;-70
2021/05/12 14:32:06;;;;;;;8.93;6.97;;;;;;;;;;5127376;27;20047;-70
2021/05/12 14:34:33;;;;;;;12.93;8.20;;;;;;;;;;5138455;27;20138;-71
2021/05/12 14:37:00;;;;;;;12.15;7.93;;;;;;;;;;5127694;27;20047;-70
2021/05/12 14:39:28;;;;;;;9.50;7.55;;;;;;;;;;5127114;27;20671;-70
2021/05/12 14:41:54;;;;;;;8.60;6.50;;;;;;;;;;5133701;27;20120;-69
2021/05/12 14:44:21;;;;;;;8.80;6.80;;;;;;;;;;5133311;27;20051;-69
2021/05/12 14:46:47;;;;;;;8.90;6.60;;;;;;;;;;5130688;27;20081;-70
2021/05/12 14:49:13;;;;;;;9.10;7.45;;;;;;;;;;5133121;27;20039;-70